Time;durP1;ratioP1;P1;durP2;ratioP2;P2;SDS_P1;SDS_P2;PMS_P1;PMS_P2;Temp;Humidity;BMP_temperature;BMP_pressure;BME280_temperature;BME280_humidity;BME280_pressure;Samples;Min_cycle;Max_cycle;Signal;HPM_P1;HPM_P2
2022/07/19 00:02:10;;;;;;;5.35;3.88;;;;;;;;;;7311091;19;162173;-14
2022/07/19 00:04:42;;;;;;;5.40;3.83;;;;;;;;;;7309375;19;162958;-14
2022/07/19 00:07:16;;;;;;;6.80;3.70;;;;;;;;;;7311499;19;154468;-13
2022/07/19 00:09:48;;;;;;;6.40;3.42;;;;;;;;;;7311425;19;154474;-14
2022/07/19 00:12:20;;;;;;;6.75;3.92;;;;;;;;;;7310987;19;162891;-14
2022/07/19 00:14:51;;;;;;;4.63;3.63;;;;;;;;;;7311286;19;162822;-13
2022/07/19 00:17:22;;;;;;;11.80;4.25;;;;;;;;;;7310930;19;153927;-14
2022/07/19 00:19:53;;;;;;;6.53;3.83;;;;;;;;;;7311293;19;154482;-14
2022/07/19 00:22:27;;;;;;;5.57;3.42;;;;;;;;;;7316222;19;162703;-14
2022/07/19 00:24:59;;;;;;;4.03;3.55;;;;;;;;;;7317472;19;163433;-14
2022/07/19 00:27:30;;;;;;;7.63;3.45;;;;;;;;;;7318482;19;153983;-14
2022/07/19 00:30:01;;;;;;;5.55;3.47;;;;;;;;;;7315414;19;154486;-14
2022/07/19 00:32:33;;;;;;;5.35;3.60;;;;;;;;;;7317447;19;163008;-14
2022/07/19 00:35:04;;;;;;;6.13;3.42;;;;;;;;;;7317228;19;165134;-14
2022/07/19 00:37:38;;;;;;;4.10;3.70;;;;;;;;;;7317259;19;154992;-14
2022/07/19 00:40:14;;;;;;;3.50;3.20;;;;;;;;;;7317060;19;153902;-13
2022/07/19 00:42:46;;;;;;;7.38;3.63;;;;;;;;;;7317102;19;162228;-13
2022/07/19 00:45:17;;;;;;;5.93;3.80;;;;;;;;;;7316625;19;163707;-14
2022/07/19 00:47:49;;;;;;;4.72;3.22;;;;;;;;;;7317155;19;154457;-14
2022/07/19 00:50:20;;;;;;;3.40;3.10;;;;;;;;;;7317190;19;154853;-14
2022/07/19 00:52:56;;;;;;;4.80;3.15;;;;;;;;;;7317326;19;162377;-14
2022/07/19 00:55:27;;;;;;;4.07;3.55;;;;;;;;;;7316403;19;163179;-14
2022/07/19 00:58:00;;;;;;;4.40;3.23;;;;;;;;;;7317193;19;154784;-14
2022/07/19 01:00:37;;;;;;;8.65;3.53;;;;;;;;;;7316580;19;154013;-15
2022/07/19 01:03:11;;;;;;;7.00;3.60;;;;;;;;;;7317599;19;163215;-15
2022/07/19 01:05:43;;;;;;;5.32;3.47;;;;;;;;;;7315668;19;162905;-14
2022/07/19 01:08:17;;;;;;;3.77;3.20;;;;;;;;;;7317059;19;154502;-14
2022/07/19 01:10:49;;;;;;;6.55;3.55;;;;;;;;;;7314971;19;154393;-14
2022/07/19 01:13:21;;;;;;;5.13;3.28;;;;;;;;;;7315211;19;162596;-14
2022/07/19 01:15:53;;;;;;;4.85;3.15;;;;;;;;;;7316599;19;165180;-14
2022/07/19 01:18:24;;;;;;;6.57;3.55;;;;;;;;;;7315547;19;154502;-14
2022/07/19 01:20:55;;;;;;;7.32;3.60;;;;;;;;;;7314643;19;153892;-14
2022/07/19 01:23:29;;;;;;;3.70;2.80;;;;;;;;;;7314202;19;162728;-14
2022/07/19 01:26:01;;;;;;;3.97;2.85;;;;;;;;;;7315564;19;163268;-14
2022/07/19 01:28:33;;;;;;;4.30;3.37;;;;;;;;;;7313776;19;154520;-14
2022/07/19 01:31:05;;;;;;;3.50;3.03;;;;;;;;;;7316472;19;154010;-14
2022/07/19 01:33:41;;;;;;;5.47;3.33;;;;;;;;;;7315205;19;162778;-14
2022/07/19 01:36:13;;;;;;;4.05;3.17;;;;;;;;;;7315418;19;163377;-14
2022/07/19 01:38:47;;;;;;;4.28;3.42;;;;;;;;;;7313916;19;154557;-14
2022/07/19 01:41:18;;;;;;;4.32;2.97;;;;;;;;;;7315357;19;154081;-14
2022/07/19 01:43:50;;;;;;;3.70;3.35;;;;;;;;;;7312591;19;163483;-14
2022/07/19 01:46:21;;;;;;;5.20;3.33;;;;;;;;;;7314455;19;163396;-14
2022/07/19 01:48:53;;;;;;;5.32;3.10;;;;;;;;;;7315265;19;154006;-14
2022/07/19 01:51:25;;;;;;;3.47;3.10;;;;;;;;;;7315733;19;153995;-14
2022/07/19 01:53:59;;;;;;;3.95;3.22;;;;;;;;;;7314836;19;162628;-14
2022/07/19 01:56:30;;;;;;;4.57;3.20;;;;;;;;;;7313171;19;163007;-14
2022/07/19 01:59:01;;;;;;;4.28;3.30;;;;;;;;;;7314609;19;154781;-14
2022/07/19 02:01:32;;;;;;;5.85;3.10;;;;;;;;;;7315121;19;154076;-14
2022/07/19 02:04:04;;;;;;;3.63;3.28;;;;;;;;;;7314741;19;162722;-14
2022/07/19 02:06:36;;;;;;;7.27;3.80;;;;;;;;;;7314454;19;162776;-14
2022/07/19 02:09:10;;;;;;;4.40;2.95;;;;;;;;;;7313100;19;154531;-14
2022/07/19 02:11:41;;;;;;;2.88;2.60;;;;;;;;;;7315422;19;154064;-14
2022/07/19 02:14:12;;;;;;;4.50;3.00;;;;;;;;;;7316466;19;164160;-14
2022/07/19 02:16:44;;;;;;;3.85;2.60;;;;;;;;;;7313461;19;162915;-14
2022/07/19 02:19:15;;;;;;;6.13;3.38;;;;;;;;;;7314483;19;154553;-15
2022/07/19 02:21:46;;;;;;;4.80;2.40;;;;;;;;;;7315324;19;153930;-14
2022/07/19 02:24:20;;;;;;;5.32;2.70;;;;;;;;;;7314358;19;162746;-14
2022/07/19 02:26:51;;;;;;;6.97;3.00;;;;;;;;;;7314518;19;162790;-14
2022/07/19 02:29:22;;;;;;;4.07;2.63;;;;;;;;;;7313847;19;154591;-14
2022/07/19 02:31:53;;;;;;;4.28;2.70;;;;;;;;;;7313269;19;153902;-14
2022/07/19 02:34:24;;;;;;;4.43;2.90;;;;;;;;;;7314352;19;162330;-14
2022/07/19 02:36:56;;;;;;;4.95;3.15;;;;;;;;;;7314542;19;162942;-14
2022/07/19 02:39:30;;;;;;;5.28;3.38;;;;;;;;;;7313267;19;154456;-14
2022/07/19 02:42:02;;;;;;;6.18;2.88;;;;;;;;;;7313563;19;154330;-14
2022/07/19 02:44:33;;;;;;;4.68;2.80;;;;;;;;;;7311716;19;162300;-14
2022/07/19 02:47:04;;;;;;;3.80;2.88;;;;;;;;;;7313150;19;162939;-14
2022/07/19 02:49:35;;;;;;;3.85;2.92;;;;;;;;;;7312558;19;154991;-14
2022/07/19 02:52:07;;;;;;;2.80;2.40;;;;;;;;;;7313896;19;153892;-14
2022/07/19 02:54:41;;;;;;;5.15;2.65;;;;;;;;;;7311797;19;162237;-14
2022/07/19 02:57:13;;;;;;;8.13;2.47;;;;;;;;;;7313452;19;162985;-14
2022/07/19 02:59:44;;;;;;;5.25;2.55;;;;;;;;;;7312985;19;154448;-14
2022/07/19 03:02:15;;;;;;;5.05;3.08;;;;;;;;;;7313589;19;153947;-13
2022/07/19 03:04:46;;;;;;;4.07;2.65;;;;;;;;;;7313079;19;162653;-14
2022/07/19 03:07:21;;;;;;;6.65;2.78;;;;;;;;;;7313027;19;163153;-13
2022/07/19 03:09:55;;;;;;;4.93;2.90;;;;;;;;;;7313438;19;154848;-14
2022/07/19 03:12:26;;;;;;;2.95;2.38;;;;;;;;;;7313447;19;155065;-14
2022/07/19 03:14:57;;;;;;;3.83;2.60;;;;;;;;;;7313061;19;162367;-14
2022/07/19 03:17:28;;;;;;;4.20;2.40;;;;;;;;;;7312831;19;162849;-14
2022/07/19 03:19:59;;;;;;;5.72;2.50;;;;;;;;;;7312119;19;154628;-13
2022/07/19 03:22:31;;;;;;;3.35;2.58;;;;;;;;;;7311515;19;154255;-14
2022/07/19 03:25:05;;;;;;;3.08;2.45;;;;;;;;;;7312664;19;162879;-14
2022/07/19 03:27:36;;;;;;;3.55;2.35;;;;;;;;;;7312793;19;163200;-14
2022/07/19 03:30:09;;;;;;;4.15;2.90;;;;;;;;;;7309994;19;154010;-14
2022/07/19 03:32:41;;;;;;;3.08;2.40;;;;;;;;;;7313071;19;154089;-14
2022/07/19 03:35:12;;;;;;;4.35;2.38;;;;;;;;;;7312349;19;162744;-14
2022/07/19 03:37:43;;;;;;;3.72;2.58;;;;;;;;;;7312168;19;162760;-14
2022/07/19 03:40:17;;;;;;;5.63;2.50;;;;;;;;;;7311618;19;154556;-14
2022/07/19 03:42:48;;;;;;;4.75;2.45;;;;;;;;;;7312180;19;154067;-14
2022/07/19 03:45:19;;;;;;;3.28;2.75;;;;;;;;;;7311966;19;162916;-14
2022/07/19 03:47:50;;;;;;;3.25;2.50;;;;;;;;;;7311963;19;163385;-14
2022/07/19 03:50:22;;;;;;;6.60;2.80;;;;;;;;;;7312313;19;154651;-14
2022/07/19 03:52:53;;;;;;;4.35;2.58;;;;;;;;;;7312127;19;154397;-14
2022/07/19 03:55:26;;;;;;;3.35;2.35;;;;;;;;;;7309303;19;162855;-14
2022/07/19 03:57:58;;;;;;;4.63;2.80;;;;;;;;;;7309873;19;163428;-14
2022/07/19 04:00:29;;;;;;;3.60;2.60;;;;;;;;;;7311028;19;154900;-14
2022/07/19 04:03:00;;;;;;;6.95;2.28;;;;;;;;;;7311930;19;154520;-14
2022/07/19 04:05:31;;;;;;;2.92;2.63;;;;;;;;;;7311319;19;162315;-14
2022/07/19 04:08:03;;;;;;;3.35;2.90;;;;;;;;;;7311371;19;164581;-13
2022/07/19 04:10:37;;;;;;;3.90;2.50;;;;;;;;;;7311776;19;154453;-14
2022/07/19 04:13:08;;;;;;;3.58;2.58;;;;;;;;;;7311552;19;154046;-14
2022/07/19 04:15:39;;;;;;;3.08;2.58;;;;;;;;;;7311089;19;162740;-13
2022/07/19 04:18:13;;;;;;;3.42;2.70;;;;;;;;;;7310630;19;163417;-14
2022/07/19 04:20:47;;;;;;;4.75;2.47;;;;;;;;;;7310318;19;154753;-14
2022/07/19 04:23:18;;;;;;;2.53;2.30;;;;;;;;;;7311004;19;154414;-14
2022/07/19 04:25:52;;;;;;;3.40;2.45;;;;;;;;;;7310507;19;162773;-13
2022/07/19 04:28:23;;;;;;;2.78;2.58;;;;;;;;;;7309330;19;163212;-14
2022/07/19 04:30:54;;;;;;;2.80;2.38;;;;;;;;;;7309531;19;153892;-14
2022/07/19 04:33:26;;;;;;;2.50;2.28;;;;;;;;;;7310866;19;153962;-14
2022/07/19 04:35:57;;;;;;;2.70;2.22;;;;;;;;;;7310557;19;162157;-14
2022/07/19 04:38:28;;;;;;;2.63;2.40;;;;;;;;;;7310566;19;162896;-14
2022/07/19 04:41:03;;;;;;;4.57;2.92;;;;;;;;;;7309785;19;154839;-14
2022/07/19 04:43:34;;;;;;;2.78;2.30;;;;;;;;;;7309002;19;154029;-14
2022/07/19 04:46:06;;;;;;;3.05;2.17;;;;;;;;;;7310201;19;162740;-14
2022/07/19 04:48:38;;;;;;;2.97;2.50;;;;;;;;;;7310190;19;163431;-14
2022/07/19 04:51:09;;;;;;;3.33;2.75;;;;;;;;;;7308773;19;154473;-14
2022/07/19 04:53:40;;;;;;;3.42;2.72;;;;;;;;;;7309894;19;153930;-14
2022/07/19 04:56:13;;;;;;;2.78;2.58;;;;;;;;;;7309906;19;163132;-14
2022/07/19 04:58:45;;;;;;;4.88;2.78;;;;;;;;;;7308312;19;162848;-14
2022/07/19 05:01:16;;;;;;;3.70;2.42;;;;;;;;;;7309268;19;154498;-14
2022/07/19 05:03:47;;;;;;;4.85;2.72;;;;;;;;;;7309942;19;154380;-14
2022/07/19 05:06:18;;;;;;;3.97;2.70;;;;;;;;;;7309623;19;162215;-14
2022/07/19 05:08:49;;;;;;;3.60;2.50;;;;;;;;;;7315920;19;163255;-14
2022/07/19 05:11:23;;;;;;;5.00;2.50;;;;;;;;;;7316810;19;155048;-14
2022/07/19 05:13:54;;;;;;;2.40;2.20;;;;;;;;;;7316878;19;153967;-14
2022/07/19 05:16:25;;;;;;;4.07;2.10;;;;;;;;;;7316313;19;162332;-14
2022/07/19 05:18:56;;;;;;;2.58;2.25;;;;;;;;;;7316037;19;162679;-13
2022/07/19 05:21:27;;;;;;;3.55;2.53;;;;;;;;;;7313839;19;154481;-14
2022/07/19 05:23:58;;;;;;;2.65;2.45;;;;;;;;;;7316560;19;154561;-14
2022/07/19 05:26:33;;;;;;;2.97;2.53;;;;;;;;;;7314841;19;162291;-14
2022/07/19 05:29:05;;;;;;;4.15;2.63;;;;;;;;;;7314172;19;162848;-14
2022/07/19 05:31:36;;;;;;;2.95;2.30;;;;;;;;;;7316249;19;154435;-14
2022/07/19 05:34:08;;;;;;;8.90;4.03;;;;;;;;;;7316311;19;154075;-14
2022/07/19 05:36:39;;;;;;;8.40;3.60;;;;;;;;;;7315615;19;162847;-13
2022/07/19 05:39:10;;;;;;;9.40;4.13;;;;;;;;;;7315699;19;162791;-14
2022/07/19 05:41:44;;;;;;;11.68;4.20;;;;;;;;;;7313955;19;154204;-13
2022/07/19 05:44:16;;;;;;;6.55;3.65;;;;;;;;;;7315929;19;154632;-14
2022/07/19 05:46:47;;;;;;;11.57;4.68;;;;;;;;;;7315365;19;162546;-14
2022/07/19 05:49:18;;;;;;;12.38;3.90;;;;;;;;;;7315252;19;162785;-14
2022/07/19 05:51:49;;;;;;;11.38;4.45;;;;;;;;;;7315343;19;155040;-14
2022/07/19 05:54:20;;;;;;;15.27;4.57;;;;;;;;;;7313523;19;154134;-14
2022/07/19 05:56:54;;;;;;;12.02;4.55;;;;;;;;;;7315139;19;162130;-14
2022/07/19 05:59:25;;;;;;;9.98;4.25;;;;;;;;;;7315100;19;162786;-14
2022/07/19 06:01:56;;;;;;;12.15;4.18;;;;;;;;;;7312910;19;154540;-14
2022/07/19 06:04:27;;;;;;;9.02;4.13;;;;;;;;;;7314987;19;154093;-14
2022/07/19 06:06:59;;;;;;;9.80;3.90;;;;;;;;;;7314785;19;163426;-14
2022/07/19 06:09:30;;;;;;;8.55;3.55;;;;;;;;;;7314705;19;163218;-14
2022/07/19 06:12:03;;;;;;;6.85;3.30;;;;;;;;;;7314908;19;154515;-14
2022/07/19 06:14:35;;;;;;;13.25;3.03;;;;;;;;;;7314873;19;154396;-15
2022/07/19 06:17:06;;;;;;;8.48;3.88;;;;;;;;;;7314470;19;162264;-15
2022/07/19 06:19:37;;;;;;;9.45;4.13;;;;;;;;;;7312363;19;163282;-14
2022/07/19 06:22:08;;;;;;;10.18;3.50;;;;;;;;;;7314165;19;154799;-14
2022/07/19 06:24:39;;;;;;;7.97;3.38;;;;;;;;;;7314512;19;154565;-14
2022/07/19 06:27:13;;;;;;;7.18;3.22;;;;;;;;;;7313991;19;162670;-14
2022/07/19 06:29:44;;;;;;;7.35;3.47;;;;;;;;;;7311572;19;163225;-15
2022/07/19 06:32:15;;;;;;;6.10;3.50;;;;;;;;;;7313131;19;154801;-13
2022/07/19 06:34:46;;;;;;;7.95;3.38;;;;;;;;;;7314311;19;154520;-14
2022/07/19 06:37:17;;;;;;;7.43;3.17;;;;;;;;;;7313795;19;162653;-15
2022/07/19 06:39:48;;;;;;;6.13;3.05;;;;;;;;;;7313473;19;162763;-15
2022/07/19 06:42:22;;;;;;;6.90;3.67;;;;;;;;;;7313097;19;154914;-14
2022/07/19 06:44:53;;;;;;;5.57;3.08;;;;;;;;;;7314020;19;153924;-15
2022/07/19 06:47:25;;;;;;;5.88;3.33;;;;;;;;;;7312295;19;162333;-14
2022/07/19 06:49:56;;;;;;;6.47;3.53;;;;;;;;;;7313651;19;162838;-14
2022/07/19 06:52:39;;;;;;;7.93;3.75;;;;;;;;;;7313845;19;154492;-14
2022/07/19 06:55:11;;;;;;;7.60;3.30;;;;;;;;;;7313553;19;154046;-14
2022/07/19 06:57:45;;;;;;;4.68;3.30;;;;;;;;;;7313583;19;162726;-15
2022/07/19 07:00:17;;;;;;;6.80;3.25;;;;;;;;;;7313072;19;162736;-15
2022/07/19 07:02:48;;;;;;;5.25;3.88;;;;;;;;;;7312362;19;154848;-14
2022/07/19 07:05:19;;;;;;;6.15;2.85;;;;;;;;;;7313292;19;154066;-14
2022/07/19 07:07:52;;;;;;;6.20;3.22;;;;;;;;;;7312952;19;162267;-14
2022/07/19 07:10:23;;;;;;;4.85;3.70;;;;;;;;;;7312950;19;162846;-14
2022/07/19 07:12:57;;;;;;;5.75;3.75;;;;;;;;;;7313167;19;155175;-14
2022/07/19 07:15:28;;;;;;;5.55;3.20;;;;;;;;;;7312884;19;153929;-14
2022/07/19 07:17:59;;;;;;;9.38;5.05;;;;;;;;;;7312885;19;162403;-14
2022/07/19 07:20:31;;;;;;;8.57;4.43;;;;;;;;;;7312429;19;163201;-16
2022/07/19 07:23:02;;;;;;;8.20;3.85;;;;;;;;;;7310385;19;155246;-14
2022/07/19 07:25:33;;;;;;;5.10;3.22;;;;;;;;;;7311270;19;154036;-14
2022/07/19 07:28:07;;;;;;;8.48;3.90;;;;;;;;;;7311726;19;162344;-14
2022/07/19 07:30:38;;;;;;;5.38;3.45;;;;;;;;;;7312017;19;162840;-14
2022/07/19 07:33:10;;;;;;;8.82;3.60;;;;;;;;;;7312827;19;154689;-13
2022/07/19 07:35:41;;;;;;;6.78;3.65;;;;;;;;;;7312569;19;153999;-13
2022/07/19 07:38:12;;;;;;;6.38;3.58;;;;;;;;;;7310368;19;162661;-16
2022/07/19 07:40:46;;;;;;;8.10;3.97;;;;;;;;;;7312040;19;162833;-14
2022/07/19 07:43:20;;;;;;;7.38;3.40;;;;;;;;;;7311176;19;154487;-13
2022/07/19 07:45:51;;;;;;;6.38;3.80;;;;;;;;;;7312413;19;154042;-15
2022/07/19 07:48:23;;;;;;;6.68;3.80;;;;;;;;;;7311803;19;162903;-14
2022/07/19 07:50:54;;;;;;;6.68;3.90;;;;;;;;;;7312217;19;162933;-14
2022/07/19 07:53:25;;;;;;;7.68;3.78;;;;;;;;;;7312110;19;154401;-13
2022/07/19 07:55:56;;;;;;;7.68;4.30;;;;;;;;;;7312038;19;153961;-13
2022/07/19 07:58:33;;;;;;;7.70;4.10;;;;;;;;;;7311730;19;162783;-13
2022/07/19 08:01:04;;;;;;;6.07;3.65;;;;;;;;;;7311212;19;162847;-13
2022/07/19 08:03:35;;;;;;;10.40;4.28;;;;;;;;;;7310251;19;154469;-13
2022/07/19 08:06:07;;;;;;;5.18;4.30;;;;;;;;;;7311725;19;154744;-14
2022/07/19 08:08:38;;;;;;;5.70;3.90;;;;;;;;;;7311298;19;162329;-14
2022/07/19 08:11:10;;;;;;;10.82;3.95;;;;;;;;;;7311771;19;163425;-14
2022/07/19 08:13:44;;;;;;;6.25;4.13;;;;;;;;;;7311446;19;154461;-13
2022/07/19 08:16:16;;;;;;;7.32;3.53;;;;;;;;;;7311388;19;154262;-13
2022/07/19 08:18:47;;;;;;;7.55;3.97;;;;;;;;;;7311003;19;162195;-13
2022/07/19 08:21:18;;;;;;;6.72;3.88;;;;;;;;;;7310881;19;163333;-14
2022/07/19 08:23:49;;;;;;;5.63;4.35;;;;;;;;;;7309870;19;155020;-13
2022/07/19 08:26:21;;;;;;;6.47;4.60;;;;;;;;;;7311235;19;154508;-13
2022/07/19 08:28:55;;;;;;;8.70;4.10;;;;;;;;;;7309194;19;162321;-14
2022/07/19 08:31:26;;;;;;;5.20;4.03;;;;;;;;;;7310558;19;163322;-13
2022/07/19 08:33:57;;;;;;;7.38;4.22;;;;;;;;;;7310926;19;154565;-14
2022/07/19 08:36:28;;;;;;;8.85;4.00;;;;;;;;;;7310707;19;154089;-13
2022/07/19 08:38:59;;;;;;;8.55;5.20;;;;;;;;;;7310527;19;162775;-13
2022/07/19 08:41:31;;;;;;;5.97;4.13;;;;;;;;;;7310387;19;163338;-13
2022/07/19 08:44:06;;;;;;;5.85;3.92;;;;;;;;;;7315018;19;154865;-14
2022/07/19 08:46:37;;;;;;;5.32;4.10;;;;;;;;;;7317015;19;153978;-14
2022/07/19 08:49:09;;;;;;;5.30;4.60;;;;;;;;;;7316887;19;162286;-14
2022/07/19 08:51:40;;;;;;;10.93;4.80;;;;;;;;;;7315633;19;162423;-14
2022/07/19 08:54:12;;;;;;;7.38;4.68;;;;;;;;;;7317193;19;154477;-14
2022/07/19 08:59:34;;;;;;;9.15;5.15;;;;;;;;;;7314685;19;162451;-14
2022/07/19 09:02:06;;;;;;;9.98;4.72;;;;;;;;;;7316662;19;163258;-14
2022/07/19 09:04:37;;;;;;;8.00;4.60;;;;;;;;;;7315478;19;155133;-14
2022/07/19 09:07:08;;;;;;;8.98;5.70;;;;;;;;;;7316678;19;153971;-15
2022/07/19 09:09:40;;;;;;;14.43;6.43;;;;;;;;;;7316294;19;162330;-14
2022/07/19 09:12:11;;;;;;;11.10;5.65;;;;;;;;;;7316081;19;163201;-14
2022/07/19 09:14:55;;;;;;;9.45;5.53;;;;;;;;;;7316312;19;154457;-14
2022/07/19 09:17:31;;;;;;;8.98;5.10;;;;;;;;;;7316403;19;153973;-14
2022/07/19 09:20:02;;;;;;;11.73;5.25;;;;;;;;;;7314478;19;162687;-14
2022/07/19 09:22:33;;;;;;;8.45;4.80;;;;;;;;;;7315808;19;162844;-14
2022/07/19 09:25:05;;;;;;;10.00;4.78;;;;;;;;;;7314415;19;154435;-14
2022/07/19 09:27:36;;;;;;;9.68;5.13;;;;;;;;;;7316017;19;154413;-14
2022/07/19 09:30:11;;;;;;;10.15;5.60;;;;;;;;;;7313020;19;162798;-14
2022/07/19 09:32:43;;;;;;;9.63;4.57;;;;;;;;;;7315490;19;162368;-13
2022/07/19 09:35:14;;;;;;;10.35;4.78;;;;;;;;;;7316029;19;154822;-14
2022/07/19 09:37:45;;;;;;;10.00;4.72;;;;;;;;;;7315823;19;154010;-14
2022/07/19 09:40:20;;;;;;;9.45;4.93;;;;;;;;;;7315441;19;162567;-14
2022/07/19 09:42:55;;;;;;;11.90;5.05;;;;;;;;;;7315343;19;162875;-14
2022/07/19 09:45:32;;;;;;;9.68;4.80;;;;;;;;;;7313920;19;154643;-14
2022/07/19 09:48:03;;;;;;;10.35;5.03;;;;;;;;;;7315747;19;154003;-14
2022/07/19 09:50:35;;;;;;;9.25;4.70;;;;;;;;;;7314952;19;162853;-15
2022/07/19 09:53:08;;;;;;;12.32;5.10;;;;;;;;;;7313324;19;163110;-14
2022/07/19 09:55:40;;;;;;;19.17;6.05;;;;;;;;;;7314419;19;154471;-14
2022/07/19 09:58:12;;;;;;;10.57;4.93;;;;;;;;;;7315311;19;154057;-14
2022/07/19 10:00:47;;;;;;;13.52;5.18;;;;;;;;;;7315135;19;162260;-14
2022/07/19 10:03:19;;;;;;;13.85;4.93;;;;;;;;;;7314722;19;163219;-15
2022/07/19 10:05:51;;;;;;;8.30;4.60;;;;;;;;;;7312741;19;154965;-14
2022/07/19 10:08:22;;;;;;;11.80;4.80;;;;;;;;;;7313348;19;154032;-19
2022/07/19 10:10:53;;;;;;;11.50;4.75;;;;;;;;;;7314537;19;162773;-14
2022/07/19 10:13:25;;;;;;;12.88;4.72;;;;;;;;;;7314029;19;162794;-14
2022/07/19 10:16:02;;;;;;;9.88;4.63;;;;;;;;;;7314924;19;154894;-14
2022/07/19 10:18:47;;;;;;;10.20;4.47;;;;;;;;;;7314675;19;153984;-15
2022/07/19 10:21:18;;;;;;;10.93;4.88;;;;;;;;;;7312709;19;162755;-15
2022/07/19 10:23:53;;;;;;;11.68;4.85;;;;;;;;;;7314186;19;163237;-14
2022/07/19 10:26:37;;;;;;;9.40;4.93;;;;;;;;;;7312135;19;154632;-14
2022/07/19 10:29:13;;;;;;;7.68;4.45;;;;;;;;;;7313048;19;153930;-14
2022/07/19 10:32:05;;;;;;;12.20;5.65;;;;;;;;;;7314018;19;162246;-14
2022/07/19 10:34:37;;;;;;;13.40;5.17;;;;;;;;;;7313666;19;162367;-14
2022/07/19 10:37:08;;;;;;;11.32;5.00;;;;;;;;;;7311148;19;154532;-14
2022/07/19 10:39:41;;;;;;;11.10;4.82;;;;;;;;;;7313177;19;153930;-14
2022/07/19 10:42:14;;;;;;;;;;;;;;;;;;7314719;19;162292;-14
2022/07/19 10:45:16;;;;;;;8.10;4.03;;;;;;;;;;7312836;19;165024;-14
2022/07/19 10:48:15;;;;;;;8.80;4.75;;;;;;;;;;7313408;19;154548;-14
2022/07/19 10:50:58;;;;;;;12.63;4.93;;;;;;;;;;7312659;19;153996;-14
2022/07/19 10:54:06;;;;;;;10.15;4.97;;;;;;;;;;7313288;19;162349;-14
2022/07/19 10:57:00;;;;;;;8.65;4.60;;;;;;;;;;7313120;19;163215;-14
2022/07/19 10:59:38;;;;;;;9.55;4.28;;;;;;;;;;7313631;19;155385;-14
2022/07/19 11:02:09;;;;;;;10.32;4.53;;;;;;;;;;7313514;19;153981;-14
2022/07/19 11:05:03;;;;;;;9.88;4.32;;;;;;;;;;7311230;19;162611;-14
2022/07/19 11:07:34;;;;;;;9.10;3.90;;;;;;;;;;7311184;19;163322;-14
2022/07/19 11:10:06;;;;;;;14.75;4.55;;;;;;;;;;7313289;19;155236;-14
2022/07/19 11:12:38;;;;;;;12.43;4.87;;;;;;;;;;7311237;19;154057;-14
2022/07/19 11:15:12;;;;;;;10.45;4.28;;;;;;;;;;7313212;19;162476;-14
2022/07/19 11:17:58;;;;;;;9.45;4.30;;;;;;;;;;7312271;19;163293;-14
2022/07/19 11:20:34;;;;;;;8.45;4.28;;;;;;;;;;7313074;19;154484;-14
2022/07/19 11:23:07;;;;;;;7.68;4.47;;;;;;;;;;7313011;19;154482;-14
2022/07/19 11:25:41;;;;;;;10.27;4.57;;;;;;;;;;7311500;19;162289;-14
2022/07/19 11:28:22;;;;;;;13.13;4.70;;;;;;;;;;7311440;19;162780;-14
2022/07/19 11:30:54;;;;;;;8.00;4.00;;;;;;;;;;7312976;19;154650;-14
2022/07/19 11:33:25;;;;;;;12.88;4.70;;;;;;;;;;7312423;19;153916;-14
2022/07/19 11:36:01;;;;;;;20.45;4.97;;;;;;;;;;7308261;19;162308;-14
2022/07/19 11:38:41;;;;;;;12.55;4.88;;;;;;;;;;7312134;19;163155;-14
2022/07/19 11:41:18;;;;;;;11.40;4.80;;;;;;;;;;7312074;19;154404;-14
2022/07/19 11:43:54;;;;;;;12.40;4.97;;;;;;;;;;7311558;19;154125;-14
2022/07/19 11:46:27;;;;;;;11.45;5.00;;;;;;;;;;7307076;19;162094;-14
2022/07/19 11:48:59;;;;;;;9.40;4.45;;;;;;;;;;7310571;19;162958;-14
2022/07/19 11:51:34;;;;;;;15.00;4.70;;;;;;;;;;7311766;19;154501;-14
2022/07/19 11:54:07;;;;;;;15.38;4.68;;;;;;;;;;7309297;19;155553;-14
2022/07/19 11:56:39;;;;;;;11.63;5.05;;;;;;;;;;7306782;19;162306;-14
2022/07/19 11:59:10;;;;;;;10.80;4.60;;;;;;;;;;7311077;19;162908;-14
2022/07/19 12:01:44;;;;;;;18.63;5.10;;;;;;;;;;7312530;19;154406;-14
2022/07/19 12:04:16;;;;;;;9.05;4.72;;;;;;;;;;7310322;19;154856;-14
2022/07/19 12:06:52;;;;;;;13.63;5.18;;;;;;;;;;7306787;19;162160;-14
2022/07/19 12:09:32;;;;;;;15.48;5.10;;;;;;;;;;7309396;19;163417;-14
2022/07/19 12:12:15;;;;;;;12.60;5.20;;;;;;;;;;7311456;19;154422;-14
2022/07/19 12:14:46;;;;;;;;;;;;;;;;;;7310816;19;154014;-15
2022/07/19 12:17:19;;;;;;;10.15;4.88;;;;;;;;;;7313205;19;162967;-14
2022/07/19 12:19:53;;;;;;;7.78;4.75;;;;;;;;;;7317902;19;162967;-14
2022/07/19 12:22:37;;;;;;;11.15;4.80;;;;;;;;;;7319697;19;154460;-14
2022/07/19 12:25:09;;;;;;;13.05;4.97;;;;;;;;;;7318377;19;154533;-14
2022/07/19 12:27:41;;;;;;;10.50;4.68;;;;;;;;;;7315735;19;162295;-14
2022/07/19 12:30:21;;;;;;;7.57;4.70;;;;;;;;;;7317158;19;163198;-14
2022/07/19 12:32:52;;;;;;;6.38;4.43;;;;;;;;;;7316614;19;154486;-14
2022/07/19 12:35:24;;;;;;;11.18;4.43;;;;;;;;;;7318100;19;154290;-14
2022/07/19 12:38:09;;;;;;;6.95;4.57;;;;;;;;;;7317744;19;162273;-14
2022/07/19 12:40:41;;;;;;;8.60;4.68;;;;;;;;;;7318443;19;162837;-14
2022/07/19 12:43:14;;;;;;;11.13;4.60;;;;;;;;;;7316634;19;154498;-14
2022/07/19 12:45:46;;;;;;;;;;;;;;;;;;7318696;19;154039;-14
2022/07/19 12:48:19;;;;;;;13.20;5.10;;;;;;;;;;7316851;19;162565;-14
2022/07/19 12:50:52;;;;;;;8.88;4.75;;;;;;;;;;7316202;19;163276;-14
2022/07/19 12:53:25;;;;;;;9.73;4.35;;;;;;;;;;7317904;19;154509;-14
2022/07/19 12:55:57;;;;;;;9.70;4.50;;;;;;;;;;7318998;19;153972;-14
2022/07/19 13:01:12;;;;;;;10.75;4.72;;;;;;;;;;7317883;19;163409;-14
2022/07/19 13:03:43;;;;;;;5.65;4.10;;;;;;;;;;7316537;19;154421;-14
2022/07/19 13:06:14;;;;;;;9.27;4.55;;;;;;;;;;7316572;19;154303;-14
2022/07/19 13:08:48;;;;;;;9.73;4.53;;;;;;;;;;7316177;19;162333;-14
2022/07/19 13:11:19;;;;;;;8.63;4.53;;;;;;;;;;7316148;19;162972;-14
2022/07/19 13:13:51;;;;;;;7.30;4.00;;;;;;;;;;7316534;19;154552;-14
2022/07/19 13:16:23;;;;;;;9.23;4.70;;;;;;;;;;7316420;19;154310;-14
2022/07/19 13:18:54;;;;;;;5.15;3.97;;;;;;;;;;7316089;19;162787;-14
2022/07/19 13:21:26;;;;;;;7.18;3.88;;;;;;;;;;7315930;19;163186;-15
2022/07/19 13:24:00;;;;;;;;;;;;;;;;;;7316844;19;154465;-15
2022/07/19 13:26:34;;;;;;;8.23;4.00;;;;;;;;;;7314703;19;153893;-15
2022/07/19 13:29:06;;;;;;;10.23;4.10;;;;;;;;;;7314480;19;163463;-15
2022/07/19 13:31:38;;;;;;;7.95;4.15;;;;;;;;;;7315701;19;163425;-15
2022/07/19 13:34:09;;;;;;;6.82;3.97;;;;;;;;;;7316107;19;154546;-15
2022/07/19 13:36:41;;;;;;;9.05;3.72;;;;;;;;;;7315674;19;154145;-15
2022/07/19 13:39:15;;;;;;;6.78;4.20;;;;;;;;;;7315632;19;162200;-15
2022/07/19 13:41:46;;;;;;;6.20;3.53;;;;;;;;;;7315117;19;162792;-15
2022/07/19 13:44:20;;;;;;;6.47;3.63;;;;;;;;;;7316190;19;154784;-15
2022/07/19 13:46:52;;;;;;;7.65;4.10;;;;;;;;;;7315355;19;154116;-15
2022/07/19 13:49:23;;;;;;;9.02;3.97;;;;;;;;;;7315391;19;162720;-15
2022/07/19 13:51:56;;;;;;;9.50;3.95;;;;;;;;;;7314996;19;162879;-15
2022/07/19 13:54:29;;;;;;;;;;;;;;;;;;7314674;19;154614;-15
2022/07/19 13:57:00;;;;;;;;;;;;;;;;;;7315039;19;153833;-15
2022/07/19 13:59:33;;;;;;;8.98;4.18;;;;;;;;;;7314300;19;162881;-15
2022/07/19 14:02:05;;;;;;;12.45;4.80;;;;;;;;;;7314985;19;162875;-15
2022/07/19 14:04:36;;;;;;;14.63;5.53;;;;;;;;;;7315338;19;154481;-15
2022/07/19 14:07:07;;;;;;;17.17;6.75;;;;;;;;;;7314526;19;154347;-15
2022/07/19 14:09:41;;;;;;;16.40;6.78;;;;;;;;;;7314764;19;162215;-15
2022/07/19 14:12:14;;;;;;;18.33;6.72;;;;;;;;;;7314638;19;162842;-15
2022/07/19 14:14:47;;;;;;;17.70;6.32;;;;;;;;;;7315165;19;154450;-15
2022/07/19 14:17:19;;;;;;;15.40;7.13;;;;;;;;;;7313409;19;154675;-15
2022/07/19 14:19:50;;;;;;;18.70;7.30;;;;;;;;;;7314522;19;162755;-15
2022/07/19 14:22:21;;;;;;;23.02;8.25;;;;;;;;;;7314387;19;162855;-15
2022/07/19 14:24:55;;;;;;;20.38;8.05;;;;;;;;;;7314883;19;154610;-15
2022/07/19 14:27:26;;;;;;;28.90;9.43;;;;;;;;;;7312754;19;154340;-15
2022/07/19 14:29:58;;;;;;;47.92;13.23;;;;;;;;;;7311535;19;162714;-15
2022/07/19 14:32:29;;;;;;;43.63;13.00;;;;;;;;;;7312481;19;163677;-15
2022/07/19 14:35:00;;;;;;;37.28;12.57;;;;;;;;;;7314374;19;154479;-15
2022/07/19 14:37:31;;;;;;;38.10;12.85;;;;;;;;;;7314331;19;154432;-15
2022/07/19 14:40:06;;;;;;;31.55;12.00;;;;;;;;;;7312080;19;162443;-14
2022/07/19 14:42:37;;;;;;;34.75;12.02;;;;;;;;;;7311732;19;163304;-14
2022/07/19 14:45:13;;;;;;;103.68;33.72;;;;;;;;;;7313928;19;154458;-14
2022/07/19 14:47:44;;;;;;;96.13;34.03;;;;;;;;;;7313370;19;154347;-14
2022/07/19 14:50:18;;;;;;;90.05;29.17;;;;;;;;;;7310460;19;162312;-14
2022/07/19 14:52:52;;;;;;;93.68;32.38;;;;;;;;;;7312652;19;163337;-14
2022/07/19 14:55:27;;;;;;;82.43;27.75;;;;;;;;;;7313659;19;154470;-14
2022/07/19 14:57:58;;;;;;;74.57;25.10;;;;;;;;;;7312215;19;155010;-14
2022/07/19 15:00:30;;;;;;;92.65;29.38;;;;;;;;;;7312749;19;162185;-14
2022/07/19 15:03:01;;;;;;;88.07;31.00;;;;;;;;;;7312877;19;163213;-14
2022/07/19 15:05:32;;;;;;;88.35;29.45;;;;;;;;;;7313507;19;154509;-14
2022/07/19 15:08:03;;;;;;;85.10;27.27;;;;;;;;;;7312540;19;154028;-14